Time;durP1;ratioP1;P1;durP2;ratioP2;P2;SDS_P1;SDS_P2;PMS_P1;PMS_P2;Temp;Humidity;BMP_temperature;BMP_pressure;BME280_temperature;BME280_humidity;BME280_pressure;Samples;Min_cycle;Max_cycle;Signal;HPM_P1;HPM_P2
2022/06/21 00:00:49;;;;;;;3.88;1.58;;;;;;;;;;5058755;28;20279;-85
2022/06/21 00:03:23;;;;;;;4.00;1.17;;;;;;;;;;5026504;28;20249;-87
2022/06/21 00:05:51;;;;;;;2.75;1.10;;;;;;;;;;5026523;28;20032;-86
2022/06/21 00:08:38;;;;;;;2.78;1.20;;;;;;;;;;5043048;28;20087;-87
2022/06/21 00:11:13;;;;;;;3.08;1.15;;;;;;;;;;5058952;28;20047;-86
2022/06/21 00:13:39;;;;;;;4.25;1.15;;;;;;;;;;5044312;28;20044;-87
2022/06/21 00:16:06;;;;;;;2.78;1.20;;;;;;;;;;5026201;28;20130;-86
2022/06/21 00:18:33;;;;;;;4.25;1.33;;;;;;;;;;5042651;28;20028;-86
2022/06/21 00:20:59;;;;;;;4.35;1.20;;;;;;;;;;5026515;28;20032;-87
2022/06/21 00:23:30;;;;;;;3.72;1.42;;;;;;;;;;5043066;28;20036;-87
2022/06/21 00:25:56;;;;;;;3.15;1.20;;;;;;;;;;5025528;28;20040;-87
2022/06/21 00:28:23;;;;;;;3.03;1.25;;;;;;;;;;5005549;28;20031;-86
2022/06/21 00:30:50;;;;;;;3.65;1.73;;;;;;;;;;5006314;28;20039;-86
2022/06/21 00:33:22;;;;;;;5.10;1.88;;;;;;;;;;5022494;28;20562;-87
2022/06/21 00:35:49;;;;;;;3.58;1.67;;;;;;;;;;5006566;28;20039;-86
2022/06/21 00:38:19;;;;;;;4.18;1.30;;;;;;;;;;5005931;28;20105;-86
2022/06/21 00:40:45;;;;;;;3.38;1.50;;;;;;;;;;5009015;28;20083;-86
2022/06/21 00:43:20;;;;;;;2.85;1.58;;;;;;;;;;5042074;28;20043;-86
2022/06/21 00:45:48;;;;;;;4.32;1.67;;;;;;;;;;5026020;28;20035;-86
2022/06/21 00:48:17;;;;;;;2.72;1.25;;;;;;;;;;5025646;28;20401;-86
2022/06/21 00:50:48;;;;;;;4.88;1.52;;;;;;;;;;5058577;28;20097;-86
2022/06/21 00:53:21;;;;;;;2.95;1.30;;;;;;;;;;5025589;28;20094;-86
2022/06/21 00:55:57;;;;;;;4.03;1.52;;;;;;;;;;5054920;28;20036;-87
2022/06/21 00:58:25;;;;;;;3.47;1.05;;;;;;;;;;5021965;28;20078;-86
2022/06/21 01:01:03;;;;;;;3.25;1.08;;;;;;;;;;5005804;28;20024;-86
2022/06/21 01:03:32;;;;;;;3.22;1.27;;;;;;;;;;5038658;28;20028;-86
2022/06/21 01:06:02;;;;;;;4.97;1.50;;;;;;;;;;5038789;28;20032;-86
2022/06/21 01:08:38;;;;;;;3.03;1.30;;;;;;;;;;5021499;28;20074;-86
2022/06/21 01:11:17;;;;;;;5.30;1.15;;;;;;;;;;5006812;28;20491;-86
2022/06/21 01:13:44;;;;;;;2.75;1.23;;;;;;;;;;5005766;28;20024;-86
2022/06/21 01:16:12;;;;;;;2.63;1.05;;;;;;;;;;5005755;28;20124;-86
2022/06/21 01:18:39;;;;;;;3.25;1.15;;;;;;;;;;5005393;28;20191;-86
2022/06/21 01:21:05;;;;;;;1.95;1.10;;;;;;;;;;5038041;28;20530;-86
2022/06/21 01:23:49;;;;;;;3.00;0.95;;;;;;;;;;5005452;28;20032;-86
2022/06/21 01:26:29;;;;;;;4.03;1.20;;;;;;;;;;5037909;28;20502;-86
2022/06/21 01:28:58;;;;;;;2.85;1.27;;;;;;;;;;5037960;28;20033;-86
2022/06/21 01:31:24;;;;;;;3.13;1.73;;;;;;;;;;5005206;28;20039;-85
2022/06/21 01:33:51;;;;;;;2.92;1.15;;;;;;;;;;5009036;28;20501;-86
2022/06/21 01:36:22;;;;;;;2.92;1.20;;;;;;;;;;5057813;28;20123;-85
2022/06/21 01:39:01;;;;;;;3.20;1.35;;;;;;;;;;5024733;28;20078;-86
2022/06/21 01:41:32;;;;;;;2.55;1.20;;;;;;;;;;5041237;28;20100;-85
2022/06/21 01:43:59;;;;;;;2.33;1.20;;;;;;;;;;5041644;28;20458;-86
2022/06/21 01:46:27;;;;;;;3.88;1.33;;;;;;;;;;5041039;28;20036;-85
2022/06/21 01:48:57;;;;;;;2.97;1.15;;;;;;;;;;5039584;28;20035;-86
2022/06/21 01:51:25;;;;;;;3.95;1.30;;;;;;;;;;5021423;28;20067;-85
2022/06/21 01:53:51;;;;;;;4.05;1.20;;;;;;;;;;5005110;28;20203;-85
2022/06/21 01:56:21;;;;;;;3.38;1.33;;;;;;;;;;5005276;28;20024;-85
2022/06/21 01:58:53;;;;;;;2.80;1.23;;;;;;;;;;5021575;28;20395;-86
2022/06/21 02:01:26;;;;;;;3.50;1.20;;;;;;;;;;5021914;28;20498;-85
2022/06/21 02:03:55;;;;;;;4.28;1.60;;;;;;;;;;5021753;28;20134;-86
2022/06/21 02:06:20;;;;;;;2.05;1.05;;;;;;;;;;5021361;28;20040;-86
2022/06/21 02:08:48;;;;;;;2.35;1.17;;;;;;;;;;5021090;28;20119;-85
2022/06/21 02:11:32;;;;;;;3.00;1.48;;;;;;;;;;5021116;28;20443;-86
2022/06/21 02:16:46;;;;;;;3.28;1.20;;;;;;;;;;5039743;28;20028;-85
2022/06/21 02:19:26;;;;;;;5.15;1.63;;;;;;;;;;5021128;28;20479;-86
2022/06/21 02:21:52;;;;;;;2.72;1.75;;;;;;;;;;5025694;28;20030;-86
2022/06/21 02:24:23;;;;;;;3.03;1.40;;;;;;;;;;5024473;28;20040;-85
2022/06/21 02:26:50;;;;;;;2.83;1.10;;;;;;;;;;5025476;28;20044;-86
2022/06/21 02:29:16;;;;;;;1.73;1.13;;;;;;;;;;5024569;28;20047;-85
2022/06/21 02:31:44;;;;;;;5.55;1.58;;;;;;;;;;5024960;28;20024;-85
2022/06/21 02:34:29;;;;;;;3.00;1.13;;;;;;;;;;5028038;28;20036;-86
2022/06/21 02:36:57;;;;;;;2.33;1.25;;;;;;;;;;5024292;28;20045;-85
2022/06/21 02:39:26;;;;;;;3.67;1.40;;;;;;;;;;5024778;28;20033;-85
2022/06/21 02:42:01;;;;;;;3.28;1.20;;;;;;;;;;5028244;28;20494;-85
2022/06/21 02:44:42;;;;;;;2.67;1.17;;;;;;;;;;5028381;28;20032;-86
2022/06/21 02:47:14;;;;;;;2.47;1.38;;;;;;;;;;5028103;28;20031;-85
2022/06/21 02:50:05;;;;;;;3.83;1.48;;;;;;;;;;5028174;28;20044;-85
2022/06/21 02:52:36;;;;;;;4.00;2.05;;;;;;;;;;5047340;28;20035;-86
2022/06/21 02:55:13;;;;;;;2.97;1.40;;;;;;;;;;5028476;28;20032;-86
2022/06/21 02:58:09;;;;;;;5.32;1.88;;;;;;;;;;5060874;28;20039;-86
2022/06/21 03:00:34;;;;;;;3.38;1.17;;;;;;;;;;5044169;28;20130;-85
2022/06/21 03:03:00;;;;;;;4.55;1.58;;;;;;;;;;5043924;28;20157;-85
2022/06/21 03:05:27;;;;;;;3.75;1.33;;;;;;;;;;5044023;28;20141;-85
2022/06/21 03:07:56;;;;;;;3.63;1.50;;;;;;;;;;5043501;28;20039;-85
2022/06/21 03:10:24;;;;;;;3.08;1.42;;;;;;;;;;5027645;28;20060;-85
2022/06/21 03:12:57;;;;;;;3.30;1.45;;;;;;;;;;5027591;28;20055;-85
2022/06/21 03:15:24;;;;;;;3.95;1.65;;;;;;;;;;5028165;28;20490;-85
2022/06/21 03:17:54;;;;;;;3.78;1.15;;;;;;;;;;5043781;28;20089;-85
2022/06/21 03:20:20;;;;;;;3.22;1.27;;;;;;;;;;5060743;28;20040;-85
2022/06/21 03:22:50;;;;;;;2.72;1.20;;;;;;;;;;5059503;28;20040;-85
2022/06/21 03:25:29;;;;;;;2.28;1.40;;;;;;;;;;5007449;28;20033;-85
2022/06/21 03:27:57;;;;;;;2.50;1.15;;;;;;;;;;5051722;28;20028;-85
2022/06/21 03:30:29;;;;;;;5.90;1.70;;;;;;;;;;5023258;28;20115;-84
2022/06/21 03:32:55;;;;;;;3.63;2.22;;;;;;;;;;5022268;28;20037;-84
2022/06/21 03:35:20;;;;;;;3.72;1.58;;;;;;;;;;5039615;28;20122;-84
2022/06/21 03:37:46;;;;;;;4.82;1.45;;;;;;;;;;5026204;28;20042;-84
2022/06/21 03:43:08;;;;;;;2.50;1.27;;;;;;;;;;5045090;28;20109;-85
2022/06/21 03:45:35;;;;;;;3.28;1.58;;;;;;;;;;5022814;28;20215;-85
2022/06/21 03:48:09;;;;;;;4.35;1.38;;;;;;;;;;5039827;28;20115;-84
2022/06/21 03:50:46;;;;;;;4.88;1.38;;;;;;;;;;5039262;28;20032;-85
2022/06/21 03:53:19;;;;;;;2.65;1.45;;;;;;;;;;5023313;28;20032;-85
2022/06/21 03:56:13;;;;;;;3.35;1.15;;;;;;;;;;5039577;28;20030;-85
2022/06/21 03:59:08;;;;;;;2.53;1.70;;;;;;;;;;5036756;28;20040;-86
2022/06/21 04:01:43;;;;;;;2.83;1.40;;;;;;;;;;5055993;28;20040;-85
2022/06/21 04:04:17;;;;;;;2.95;1.23;;;;;;;;;;5039347;28;20036;-85
2022/06/21 04:06:52;;;;;;;3.10;1.08;;;;;;;;;;5039698;28;20028;-85
2022/06/21 04:09:46;;;;;;;2.58;1.35;;;;;;;;;;5023255;28;20490;-85
2022/06/21 04:12:22;;;;;;;4.38;1.27;;;;;;;;;;5023205;28;20025;-85
2022/06/21 04:15:21;;;;;;;3.25;1.40;;;;;;;;;;5039018;28;20097;-85
2022/06/21 04:17:56;;;;;;;3.03;1.52;;;;;;;;;;5033019;28;20075;-85
2022/06/21 04:20:26;;;;;;;3.65;1.25;;;;;;;;;;5039093;28;20029;-85
2022/06/21 04:23:03;;;;;;;2.28;1.10;;;;;;;;;;5040531;28;20044;-85
2022/06/21 04:26:03;;;;;;;1.88;0.90;;;;;;;;;;5042568;28;20039;-85
2022/06/21 04:28:57;;;;;;;3.03;1.15;;;;;;;;;;4996801;28;20093;-85
2022/06/21 04:31:40;;;;;;;3.35;1.58;;;;;;;;;;5008350;28;20477;-84
2022/06/21 04:34:12;;;;;;;2.40;1.40;;;;;;;;;;5055267;28;20471;-85
2022/06/21 04:37:01;;;;;;;;;;;;;;;;;;5039411;28;20047;-85
2022/06/21 04:39:48;;;;;;;2.45;1.25;;;;;;;;;;5027888;28;20270;-85
2022/06/21 04:42:33;;;;;;;2.97;1.17;;;;;;;;;;5018216;28;20040;-85
2022/06/21 04:45:40;;;;;;;3.85;1.58;;;;;;;;;;5025944;28;20378;-85
2022/06/21 04:48:21;;;;;;;3.60;1.40;;;;;;;;;;5074160;28;20083;-85
2022/06/21 04:51:02;;;;;;;3.83;1.52;;;;;;;;;;5042011;28;20486;-85
2022/06/21 04:54:14;;;;;;;4.90;1.70;;;;;;;;;;5025586;28;20081;-85
2022/06/21 04:56:51;;;;;;;3.05;1.20;;;;;;;;;;5043008;28;20087;-85
2022/06/21 04:59:24;;;;;;;8.45;2.05;;;;;;;;;;5042228;28;20067;-85
2022/06/21 05:01:52;;;;;;;7.93;1.42;;;;;;;;;;5042370;28;20059;-87
2022/06/21 05:04:22;;;;;;;5.07;1.30;;;;;;;;;;5025548;28;20115;-86
2022/06/21 05:06:48;;;;;;;3.55;1.42;;;;;;;;;;5025718;28;20028;-87
2022/06/21 05:09:17;;;;;;;3.53;1.58;;;;;;;;;;5058744;28;20520;-86
2022/06/21 05:11:43;;;;;;;3.80;1.40;;;;;;;;;;5042289;28;20111;-86
2022/06/21 05:14:23;;;;;;;5.43;1.75;;;;;;;;;;5025508;28;20644;-87
2022/06/21 05:16:50;;;;;;;6.10;1.88;;;;;;;;;;5041875;28;20044;-86
2022/06/21 05:19:22;;;;;;;3.25;1.65;;;;;;;;;;5025218;28;20036;-86
2022/06/21 05:22:04;;;;;;;4.00;1.70;;;;;;;;;;5025745;28;20032;-87
2022/06/21 05:24:31;;;;;;;5.80;2.08;;;;;;;;;;5039275;28;20064;-87
2022/06/21 05:27:13;;;;;;;4.57;1.50;;;;;;;;;;5042988;28;20533;-87
2022/06/21 05:30:04;;;;;;;6.80;1.95;;;;;;;;;;5038656;28;20040;-87
2022/06/21 05:32:44;;;;;;;8.48;1.90;;;;;;;;;;5024870;28;20818;-87
2022/06/21 05:35:29;;;;;;;6.18;1.50;;;;;;;;;;5023685;28;20036;-86
2022/06/21 05:38:11;;;;;;;4.65;2.00;;;;;;;;;;5021893;28;20055;-87
2022/06/21 05:40:36;;;;;;;;;;;;;;;;;;5022722;28;20112;-86
2022/06/21 05:43:02;;;;;;;4.20;1.38;;;;;;;;;;5037870;28;20007;-87
2022/06/21 05:45:34;;;;;;;9.18;1.92;;;;;;;;;;5037927;28;20124;-87
2022/06/21 05:48:03;;;;;;;5.88;2.38;;;;;;;;;;5021373;28;20502;-88
2022/06/21 05:50:34;;;;;;;6.13;3.17;;;;;;;;;;5005578;28;20137;-87
2022/06/21 05:53:09;;;;;;;7.20;2.25;;;;;;;;;;5006066;28;20024;-86
2022/06/21 05:55:36;;;;;;;4.72;2.33;;;;;;;;;;5021038;28;20055;-88
2022/06/21 05:58:23;;;;;;;4.97;2.38;;;;;;;;;;5005508;28;20025;-87
2022/06/21 06:01:01;;;;;;;5.07;2.60;;;;;;;;;;5038018;28;20410;-86
2022/06/21 06:03:28;;;;;;;15.07;3.47;;;;;;;;;;5021666;28;20079;-85
2022/06/21 06:05:55;;;;;;;14.63;3.63;;;;;;;;;;5038075;28;20036;-87
2022/06/21 06:08:27;;;;;;;8.80;2.40;;;;;;;;;;5021806;28;20029;-88
2022/06/21 06:10:56;;;;;;;;;;;;;;;;;;5022091;28;20029;-90
2022/06/21 06:13:26;;;;;;;6.65;2.45;;;;;;;;;;5021351;28;19919;-89
2022/06/21 06:15:55;;;;;;;7.32;2.20;;;;;;;;;;5022024;28;20040;-88
2022/06/21 06:18:40;;;;;;;5.45;1.80;;;;;;;;;;5021275;28;20037;-89
2022/06/21 06:21:22;;;;;;;6.40;2.47;;;;;;;;;;5022128;28;20036;-89
2022/06/21 06:23:57;;;;;;;4.88;1.92;;;;;;;;;;5021665;28;20067;-88
2022/06/21 06:26:27;;;;;;;5.75;2.30;;;;;;;;;;5046149;28;20498;-88
2022/06/21 06:29:28;;;;;;;8.32;1.73;;;;;;;;;;5024599;28;20063;-89
2022/06/21 06:32:33;;;;;;;4.20;1.60;;;;;;;;;;5057899;28;20029;-87
2022/06/21 06:34:59;;;;;;;3.45;1.35;;;;;;;;;;4958541;28;20141;-87
2022/06/21 06:37:37;;;;;;;2.67;1.40;;;;;;;;;;4960599;28;20518;-88
2022/06/21 06:40:06;;;;;;;4.70;1.48;;;;;;;;;;5057719;28;20077;-87
2022/06/21 06:42:37;;;;;;;5.47;1.67;;;;;;;;;;5041479;28;20116;-88
2022/06/21 06:45:10;;;;;;;3.00;1.70;;;;;;;;;;5058028;28;20039;-87
2022/06/21 06:47:41;;;;;;;5.28;2.00;;;;;;;;;;5041544;28;20554;-87
2022/06/21 06:50:28;;;;;;;7.25;3.20;;;;;;;;;;5041195;28;20032;-87
2022/06/21 06:52:59;;;;;;;9.85;4.95;;;;;;;;;;5025425;28;20115;-88
2022/06/21 06:55:37;;;;;;;13.60;7.37;;;;;;;;;;5057870;28;20048;-88
2022/06/21 06:58:10;;;;;;;14.80;8.88;;;;;;;;;;5042377;28;20054;-88
2022/06/21 07:00:39;;;;;;;20.00;11.43;;;;;;;;;;5061024;28;20043;-89
2022/06/21 07:03:08;;;;;;;18.55;10.73;;;;;;;;;;5044284;28;20028;-89
2022/06/21 07:05:40;;;;;;;21.05;10.75;;;;;;;;;;5044556;28;20485;-88
2022/06/21 07:08:23;;;;;;;15.73;9.73;;;;;;;;;;5064475;28;20032;-88
2022/06/21 07:10:49;;;;;;;17.88;9.18;;;;;;;;;;5064741;28;20096;-89
2022/06/21 07:13:17;;;;;;;14.90;8.20;;;;;;;;;;5048013;28;20043;-88
2022/06/21 07:15:44;;;;;;;14.75;7.65;;;;;;;;;;5064722;28;20035;-88
2022/06/21 07:18:26;;;;;;;10.57;5.88;;;;;;;;;;5048166;28;20059;-88
2022/06/21 07:20:53;;;;;;;7.13;4.90;;;;;;;;;;5064643;28;20096;-89
2022/06/21 07:23:23;;;;;;;10.70;5.25;;;;;;;;;;5064352;28;20027;-88
2022/06/21 07:26:10;;;;;;;11.88;4.88;;;;;;;;;;5048256;28;20043;-88
2022/06/21 07:28:42;;;;;;;8.95;3.95;;;;;;;;;;5080458;28;20043;-89
2022/06/21 07:31:10;;;;;;;;;;;;;;;;;;5064506;28;20032;-89
2022/06/21 07:33:46;;;;;;;7.68;3.83;;;;;;;;;;5064394;28;19916;-88
2022/06/21 07:36:15;;;;;;;7.38;3.63;;;;;;;;;;5064275;28;20031;-88
2022/06/21 07:38:51;;;;;;;5.68;2.85;;;;;;;;;;5047856;28;20043;-88
2022/06/21 07:41:38;;;;;;;6.32;3.17;;;;;;;;;;5047729;28;20394;-89
2022/06/21 07:44:13;;;;;;;7.88;2.72;;;;;;;;;;5064227;28;20061;-89
2022/06/21 07:46:44;;;;;;;6.75;2.70;;;;;;;;;;5047757;28;20028;-89
2022/06/21 07:49:15;;;;;;;5.93;2.30;;;;;;;;;;5064346;28;20044;-89
2022/06/21 07:51:46;;;;;;;4.78;2.50;;;;;;;;;;5097686;28;20042;-88
2022/06/21 07:54:42;;;;;;;6.03;2.90;;;;;;;;;;5047664;28;20039;-89
2022/06/21 07:57:14;;;;;;;5.47;1.85;;;;;;;;;;5064051;28;20035;-88
2022/06/21 07:59:44;;;;;;;3.95;1.95;;;;;;;;;;5063388;28;20088;-87
2022/06/21 08:08:07;;;;;;;4.03;1.75;;;;;;;;;;5082835;28;20043;-87
2022/06/21 08:10:53;;;;;;;5.05;1.50;;;;;;;;;;5046603;28;20024;-87
2022/06/21 08:13:19;;;;;;;4.57;1.70;;;;;;;;;;5080279;28;20040;-88
2022/06/21 08:15:53;;;;;;;3.47;1.70;;;;;;;;;;5047080;28;20039;-88
2022/06/21 08:18:27;;;;;;;8.35;2.15;;;;;;;;;;5062900;28;20582;-88
2022/06/21 08:20:57;;;;;;;5.80;1.50;;;;;;;;;;5063581;28;20028;-88
2022/06/21 08:23:41;;;;;;;4.95;1.48;;;;;;;;;;5063647;28;20031;-88
2022/06/21 08:26:24;;;;;;;4.25;1.98;;;;;;;;;;5063654;28;20031;-87
2022/06/21 08:28:51;;;;;;;3.08;1.27;;;;;;;;;;5062775;28;20050;-88
2022/06/21 08:31:27;;;;;;;5.43;1.23;;;;;;;;;;5079311;28;20397;-87
2022/06/21 08:34:15;;;;;;;4.65;1.50;;;;;;;;;;5042516;28;20050;-86
2022/06/21 08:36:52;;;;;;;4.72;1.90;;;;;;;;;;5059147;28;20457;-86
2022/06/21 08:39:22;;;;;;;6.70;1.27;;;;;;;;;;5025988;28;20051;-88
2022/06/21 08:42:02;;;;;;;4.70;1.52;;;;;;;;;;5042973;28;20035;-88
2022/06/21 08:44:45;;;;;;;3.50;1.25;;;;;;;;;;5042848;28;20410;-89
2022/06/21 08:47:29;;;;;;;4.95;1.40;;;;;;;;;;5059216;28;20571;-90
2022/06/21 08:50:14;;;;;;;2.83;1.50;;;;;;;;;;5059592;28;20032;-89
2022/06/21 08:53:21;;;;;;;4.63;1.42;;;;;;;;;;5059378;28;20525;-89
2022/06/21 08:55:57;;;;;;;4.40;1.67;;;;;;;;;;5043972;28;20486;-89
2022/06/21 08:58:41;;;;;;;4.13;1.25;;;;;;;;;;5026674;28;20040;-89
2022/06/21 09:01:39;;;;;;;4.00;1.35;;;;;;;;;;5027789;28;20502;-89
2022/06/21 09:04:14;;;;;;;3.08;1.40;;;;;;;;;;5059772;28;20024;-89
2022/06/21 09:07:05;;;;;;;3.90;1.15;;;;;;;;;;5059029;28;20047;-91
2022/06/21 09:10:12;;;;;;;3.08;1.00;;;;;;;;;;5058949;28;20027;-89
2022/06/21 09:13:16;;;;;;;4.72;1.35;;;;;;;;;;5045198;28;20447;-89
2022/06/21 09:16:00;;;;;;;2.22;1.23;;;;;;;;;;5059027;28;20099;-89
2022/06/21 09:18:56;;;;;;;3.28;1.38;;;;;;;;;;5059006;28;20115;-89
2022/06/21 09:21:43;;;;;;;5.50;1.25;;;;;;;;;;5042661;28;20028;-89
2022/06/21 09:24:46;;;;;;;2.83;0.80;;;;;;;;;;5027157;28;20042;-89
2022/06/21 09:27:31;;;;;;;4.75;1.20;;;;;;;;;;5030031;28;20123;-88
2022/06/21 09:30:15;;;;;;;5.18;1.35;;;;;;;;;;5022821;28;20085;-89
2022/06/21 09:33:20;;;;;;;3.95;1.13;;;;;;;;;;5022627;28;20510;-89
2022/06/21 09:36:09;;;;;;;4.03;1.48;;;;;;;;;;5038700;28;20538;-89
2022/06/21 09:38:39;;;;;;;2.33;0.93;;;;;;;;;;5022060;28;20036;-88
2022/06/21 09:41:17;;;;;;;3.50;1.10;;;;;;;;;;5022417;28;20040;-88
2022/06/21 09:43:50;;;;;;;2.20;1.45;;;;;;;;;;5023604;28;20024;-89
2022/06/21 09:46:49;;;;;;;2.70;1.30;;;;;;;;;;5021780;28;20556;-88
2022/06/21 09:49:47;;;;;;;5.00;1.25;;;;;;;;;;5040910;28;20032;-88
2022/06/21 09:52:30;;;;;;;5.40;1.40;;;;;;;;;;5038136;28;20036;-89
2022/06/21 09:55:24;;;;;;;5.45;1.70;;;;;;;;;;5038495;28;20123;-88
2022/06/21 09:58:16;;;;;;;4.25;1.15;;;;;;;;;;5021432;28;20025;-89
2022/06/21 10:01:12;;;;;;;2.78;1.23;;;;;;;;;;5023077;28;20399;-89
2022/06/21 10:03:56;;;;;;;3.03;1.05;;;;;;;;;;5024311;28;20036;-89
2022/06/21 10:06:44;;;;;;;2.90;0.88;;;;;;;;;;5038577;28;20025;-90
2022/06/21 10:09:47;;;;;;;2.63;1.27;;;;;;;;;;5021810;28;20044;-89
2022/06/21 10:12:26;;;;;;;2.88;0.85;;;;;;;;;;5038294;28;20029;-91
2022/06/21 10:15:19;;;;;;;3.92;1.55;;;;;;;;;;5006057;28;20413;-90
2022/06/21 10:18:11;;;;;;;2.20;1.30;;;;;;;;;;5038144;28;20020;-89
2022/06/21 10:21:02;;;;;;;2.25;0.85;;;;;;;;;;5007928;28;20040;-89
2022/06/21 10:23:47;;;;;;;2.53;1.05;;;;;;;;;;5038281;28;20043;-88
2022/06/21 10:26:42;;;;;;;4.78;1.40;;;;;;;;;;5026468;28;20098;-91
2022/06/21 10:29:26;;;;;;;3.17;0.93;;;;;;;;;;5058210;28;20032;-92
2022/06/21 10:31:55;;;;;;;2.63;1.20;;;;;;;;;;5058271;28;20078;-91
2022/06/21 10:34:23;;;;;;;3.08;1.08;;;;;;;;;;5058389;28;20032;-92
2022/06/21 10:37:00;;;;;;;3.97;1.30;;;;;;;;;;5057924;28;20058;-91
2022/06/21 10:40:10;;;;;;;1.65;0.90;;;;;;;;;;5041344;28;20039;-91
2022/06/21 10:42:48;;;;;;;3.65;1.30;;;;;;;;;;5078645;28;20036;-91
2022/06/21 10:45:35;;;;;;;4.57;1.50;;;;;;;;;;5061650;28;20036;-90
2022/06/21 10:48:09;;;;;;;3.63;2.20;;;;;;;;;;5078680;28;20483;-90
2022/06/21 10:50:57;;;;;;;3.15;1.27;;;;;;;;;;5061630;28;20081;-89
2022/06/21 10:53:28;;;;;;;4.65;1.20;;;;;;;;;;5047212;28;20028;-88
2022/06/21 11:01:16;;;;;;;3.97;1.10;;;;;;;;;;5066240;28;20039;-88
2022/06/21 11:02:24;;;;;;;7.45;1.73;;;;;;;;;;5051513;28;20078;-88
2022/06/21 11:05:24;;;;;;;2.65;1.05;;;;;;;;;;5028553;28;20036;-90
2022/06/21 11:08:05;;;;;;;2.83;1.20;;;;;;;;;;5061211;28;20047;-89
2022/06/21 11:10:35;;;;;;;2.20;0.90;;;;;;;;;;5044846;28;20036;-88
2022/06/21 11:13:04;;;;;;;3.88;1.45;;;;;;;;;;5028463;28;20031;-90
2022/06/21 11:15:35;;;;;;;2.95;1.30;;;;;;;;;;5028948;28;20028;-89
2022/06/21 11:18:15;;;;;;;3.50;1.10;;;;;;;;;;5061149;28;20036;-89
2022/06/21 11:21:26;;;;;;;5.38;1.80;;;;;;;;;;5060831;28;20040;-90
2022/06/21 11:24:04;;;;;;;4.85;1.13;;;;;;;;;;4993907;28;20200;-90
2022/06/21 11:27:07;;;;;;;3.65;1.42;;;;;;;;;;5037052;28;20044;-90
2022/06/21 11:29:52;;;;;;;3.25;1.50;;;;;;;;;;5046492;28;20525;-91
2022/06/21 11:32:18;;;;;;;2.95;1.23;;;;;;;;;;5060765;28;20035;-89
2022/06/21 11:35:29;;;;;;;2.65;1.17;;;;;;;;;;5060704;28;20036;-89
2022/06/21 11:38:15;;;;;;;5.35;1.10;;;;;;;;;;4961458;28;20080;-89
2022/06/21 11:41:09;;;;;;;3.45;1.13;;;;;;;;;;5077444;28;20048;-89
2022/06/21 11:43:56;;;;;;;1.67;1.10;;;;;;;;;;5018753;28;20130;-89
2022/06/21 11:46:30;;;;;;;2.47;1.27;;;;;;;;;;5029607;28;20036;-89
2022/06/21 11:49:04;;;;;;;4.60;1.55;;;;;;;;;;5044282;28;20067;-88
2022/06/21 11:51:49;;;;;;;3.05;0.95;;;;;;;;;;5078710;28;20048;-89
2022/06/21 11:54:19;;;;;;;3.72;1.23;;;;;;;;;;5077620;28;20849;-89
2022/06/21 11:57:11;;;;;;;2.20;1.30;;;;;;;;;;5028684;28;20052;-89
2022/06/21 11:59:58;;;;;;;3.45;1.15;;;;;;;;;;5044270;28;20043;-88
2022/06/21 12:02:32;;;;;;;6.10;2.90;;;;;;;;;;5044844;28;20046;-90
2022/06/21 12:05:08;;;;;;;5.05;1.65;;;;;;;;;;5028482;28;20032;-89
2022/06/21 12:07:51;;;;;;;5.85;2.60;;;;;;;;;;5045239;28;20067;-89
2022/06/21 12:10:39;;;;;;;7.50;4.30;;;;;;;;;;5062152;28;20036;-88
2022/06/21 12:13:22;;;;;;;11.65;5.90;;;;;;;;;;5061734;28;20036;-89
2022/06/21 12:16:16;;;;;;;11.43;6.07;;;;;;;;;;5044358;28;20024;-89
2022/06/21 12:18:45;;;;;;;11.30;6.25;;;;;;;;;;5060803;28;20028;-88
2022/06/21 12:21:13;;;;;;;12.27;6.03;;;;;;;;;;5045034;28;20059;-90
2022/06/21 12:23:50;;;;;;;11.88;6.40;;;;;;;;;;5044532;28;20035;-90
2022/06/21 12:26:18;;;;;;;11.45;5.38;;;;;;;;;;5060384;28;20020;-89
2022/06/21 12:28:44;;;;;;;10.45;6.45;;;;;;;;;;5026660;28;20166;-89
2022/06/21 12:31:16;;;;;;;11.00;5.53;;;;;;;;;;5026490;28;20123;-90
2022/06/21 12:33:44;;;;;;;10.88;5.50;;;;;;;;;;5042845;28;20137;-90
2022/06/21 12:36:15;;;;;;;8.93;4.80;;;;;;;;;;5026684;28;20127;-90
2022/06/21 12:38:52;;;;;;;8.52;4.95;;;;;;;;;;5043076;28;20410;-89
2022/06/21 12:41:35;;;;;;;6.38;3.83;;;;;;;;;;5043620;28;20493;-89
2022/06/21 12:44:04;;;;;;;;;;;;;;;;;;5059914;28;20032;-90
2022/06/21 12:46:48;;;;;;;9.55;5.30;;;;;;;;;;5059434;28;19908;-91
2022/06/21 12:49:35;;;;;;;7.78;2.97;;;;;;;;;;5059613;28;20064;-91
2022/06/21 12:52:22;;;;;;;8.75;3.95;;;;;;;;;;5059437;28;20039;-90
2022/06/21 12:54:56;;;;;;;7.00;3.70;;;;;;;;;;5043004;28;20025;-89
2022/06/21 12:57:45;;;;;;;6.07;3.28;;;;;;;;;;5059206;28;20028;-87
2022/06/21 13:00:33;;;;;;;6.00;3.08;;;;;;;;;;5062094;28;20048;-89
2022/06/21 13:03:37;;;;;;;5.15;2.50;;;;;;;;;;5059282;28;20032;-89
2022/06/21 13:06:21;;;;;;;6.68;3.35;;;;;;;;;;5059124;28;20551;-89
2022/06/21 13:09:08;;;;;;;11.88;5.90;;;;;;;;;;5058869;28;20107;-90
2022/06/21 13:11:43;;;;;;;17.80;10.18;;;;;;;;;;5075681;28;20024;-89
2022/06/21 13:14:42;;;;;;;24.52;15.50;;;;;;;;;;5042664;28;20115;-90
2022/06/21 13:17:50;;;;;;;25.02;16.92;;;;;;;;;;5058966;28;20028;-89
2022/06/21 13:20:20;;;;;;;30.58;18.25;;;;;;;;;;5042238;28;20040;-89
2022/06/21 13:23:05;;;;;;;29.70;18.17;;;;;;;;;;5043179;28;20097;-88
2022/06/21 13:25:57;;;;;;;27.83;18.27;;;;;;;;;;5078691;28;20035;-89
2022/06/21 13:28:26;;;;;;;21.63;14.13;;;;;;;;;;5038673;28;20081;-90
2022/06/21 13:31:18;;;;;;;22.80;14.52;;;;;;;;;;5054838;28;20060;-90
2022/06/21 13:33:57;;;;;;;22.67;13.77;;;;;;;;;;5023402;28;20101;-89
2022/06/21 13:36:44;;;;;;;19.70;12.50;;;;;;;;;;5038671;28;20122;-88
2022/06/21 13:39:27;;;;;;;16.80;10.68;;;;;;;;;;5038496;28;20036;-89
2022/06/21 13:45:01;;;;;;;15.38;9.30;;;;;;;;;;5057040;28;20029;-88
2022/06/21 13:47:54;;;;;;;13.68;8.02;;;;;;;;;;5038441;28;20032;-88
2022/06/21 13:50:33;;;;;;;11.05;7.47;;;;;;;;;;5025238;28;20111;-90
2022/06/21 13:53:10;;;;;;;10.05;7.05;;;;;;;;;;5039627;28;20025;-88
2022/06/21 13:55:45;;;;;;;13.13;7.57;;;;;;;;;;5055200;28;20044;-89
2022/06/21 13:58:22;;;;;;;11.27;6.40;;;;;;;;;;5054746;28;20064;-89
2022/06/21 14:01:20;;;;;;;11.75;6.22;;;;;;;;;;5054491;28;20036;-89
2022/06/21 14:03:53;;;;;;;10.80;5.68;;;;;;;;;;5041220;28;20036;-90
2022/06/21 14:06:48;;;;;;;8.40;5.20;;;;;;;;;;5038842;28;20486;-89
2022/06/21 14:09:51;;;;;;;9.15;5.20;;;;;;;;;;4997323;28;20533;-89
2022/06/21 14:12:47;;;;;;;12.50;6.28;;;;;;;;;;5038500;28;20032;-90
2022/06/21 14:15:21;;;;;;;12.32;7.80;;;;;;;;;;5041561;28;20117;-88
2022/06/21 14:18:06;;;;;;;14.00;8.88;;;;;;;;;;5026387;28;20048;-90
2022/06/21 14:20:44;;;;;;;17.83;11.70;;;;;;;;;;5044700;28;20040;-89
2022/06/21 14:23:25;;;;;;;19.65;11.93;;;;;;;;;;5025998;28;20054;-89
2022/06/21 14:26:06;;;;;;;18.85;12.05;;;;;;;;;;5059191;28;20388;-89
2022/06/21 14:28:57;;;;;;;18.55;11.55;;;;;;;;;;5025171;28;20028;-90
2022/06/21 14:31:24;;;;;;;16.40;10.68;;;;;;;;;;5025726;28;20486;-89
2022/06/21 14:34:16;;;;;;;15.40;9.45;;;;;;;;;;5042823;28;20029;-89
2022/06/21 14:37:21;;;;;;;15.93;9.40;;;;;;;;;;5033291;28;20043;-89
2022/06/21 14:39:51;;;;;;;13.93;8.43;;;;;;;;;;5040896;28;20056;-88
2022/06/21 14:42:38;;;;;;;10.23;5.57;;;;;;;;;;5061807;28;20064;-89
2022/06/21 14:45:28;;;;;;;10.70;6.47;;;;;;;;;;5030251;28;20040;-89
2022/06/21 14:48:02;;;;;;;13.95;8.80;;;;;;;;;;5061439;28;20505;-90
2022/06/21 14:50:38;;;;;;;15.10;8.60;;;;;;;;;;5044854;28;20032;-89
2022/06/21 14:53:39;;;;;;;12.93;7.80;;;;;;;;;;5044749;28;20032;-90
2022/06/21 14:56:26;;;;;;;9.43;6.15;;;;;;;;;;5050801;28;20062;-90
2022/06/21 14:59:12;;;;;;;12.45;6.68;;;;;;;;;;5044849;28;20032;-89
2022/06/21 15:01:46;;;;;;;12.10;6.53;;;;;;;;;;5061462;28;20024;-91
2022/06/21 15:04:37;;;;;;;11.35;6.15;;;;;;;;;;5028904;28;20085;-90
2022/06/21 15:07:10;;;;;;;7.93;4.80;;;;;;;;;;5061833;28;20509;-90
2022/06/21 15:09:43;;;;;;;7.90;4.68;;;;;;;;;;5061204;28;20032;-90
2022/06/21 15:12:14;;;;;;;10.00;3.92;;;;;;;;;;5028933;28;20032;-90
2022/06/21 15:14:48;;;;;;;8.65;5.00;;;;;;;;;;5028517;28;20060;-89
2022/06/21 15:17:32;;;;;;;7.45;3.53;;;;;;;;;;5028315;28;20032;-89
2022/06/21 15:19:59;;;;;;;10.93;3.78;;;;;;;;;;5061165;28;20115;-90
2022/06/21 15:22:48;;;;;;;6.68;3.47;;;;;;;;;;5061516;28;20044;-90
2022/06/21 15:25:20;;;;;;;5.65;3.05;;;;;;;;;;5040867;28;20495;-90
2022/06/21 15:28:02;;;;;;;6.10;3.55;;;;;;;;;;5039243;28;20043;-89
2022/06/21 15:30:30;;;;;;;7.43;2.90;;;;;;;;;;5060643;28;20043;-90
2022/06/21 15:32:59;;;;;;;4.78;2.72;;;;;;;;;;5027998;28;20391;-89
2022/06/21 15:35:56;;;;;;;4.88;2.40;;;;;;;;;;5028567;28;20028;-90
2022/06/21 15:38:21;;;;;;;5.50;2.90;;;;;;;;;;5028425;28;20089;-90
2022/06/21 15:40:52;;;;;;;6.88;3.40;;;;;;;;;;5028008;28;20040;-91
2022/06/21 15:43:37;;;;;;;3.78;1.83;;;;;;;;;;5044521;28;20032;-89
2022/06/21 15:46:07;;;;;;;4.75;2.30;;;;;;;;;;5043949;28;20498;-90
2022/06/21 15:51:35;;;;;;;6.20;1.98;;;;;;;;;;5063788;28;20028;-90
2022/06/21 15:54:06;;;;;;;3.33;1.70;;;;;;;;;;5060884;28;20082;-89
2022/06/21 15:56:57;;;;;;;3.60;2.00;;;;;;;;;;5060513;28;20031;-90
2022/06/21 15:59:46;;;;;;;4.82;1.92;;;;;;;;;;5043235;28;20274;-90
2022/06/21 16:02:34;;;;;;;4.63;2.13;;;;;;;;;;5043778;28;20036;-91
2022/06/21 16:05:12;;;;;;;8.82;2.42;;;;;;;;;;5061687;28;20036;-90
2022/06/21 16:07:50;;;;;;;9.48;2.10;;;;;;;;;;5060314;28;20036;-90